Time;durP1;ratioP1;P1;durP2;ratioP2;P2;SDS_P1;SDS_P2;PMS_P1;PMS_P2;Temp;Humidity;BMP_temperature;BMP_pressure;BME280_temperature;BME280_humidity;BME280_pressure;Samples;Min_cycle;Max_cycle;Signal;HPM_P1;HPM_P2
2021/11/22 00:00:22;;;;;;;25.48;22.80;;;8.80;99.90;;;;;;4160303;28;20121;-53
2021/11/22 00:02:25;;;;;;;29.80;23.58;;;8.80;99.90;;;;;;4155710;28;20071;-53
2021/11/22 00:04:27;;;;;;;24.83;21.67;;;8.90;99.90;;;;;;4160985;28;20045;-52
2021/11/22 00:06:29;;;;;;;28.52;21.60;;;8.90;99.90;;;;;;4162221;28;20501;-52
2021/11/22 00:08:31;;;;;;;29.25;22.50;;;8.90;99.90;;;;;;4160862;28;20041;-52
2021/11/22 00:10:34;;;;;;;24.15;20.85;;;9.00;99.90;;;;;;4159638;28;20092;-53
2021/11/22 00:12:37;;;;;;;24.70;20.40;;;9.00;99.90;;;;;;4160517;28;20120;-52
2021/11/22 00:14:39;;;;;;;23.85;20.55;;;9.00;99.90;;;;;;4159588;28;20069;-52
2021/11/22 00:16:41;;;;;;;25.48;20.88;;;9.00;99.90;;;;;;4161066;28;20076;-52
2021/11/22 00:18:44;;;;;;;23.02;20.63;;;9.00;99.90;;;;;;4160509;28;20045;-52
2021/11/22 00:20:46;;;;;;;24.80;20.77;;;9.00;99.90;;;;;;4161058;28;20432;-52
2021/11/22 00:22:49;;;;;;;22.90;20.60;;;8.90;99.90;;;;;;4160089;28;20112;-52
2021/11/22 00:24:52;;;;;;;29.40;22.23;;;8.80;99.90;;;;;;4159692;28;20057;-51
2021/11/22 00:26:59;;;;;;;22.25;19.88;;;8.80;99.90;;;;;;4160183;28;20045;-52
2021/11/22 00:29:02;;;;;;;22.13;19.15;;;8.80;99.90;;;;;;4159889;28;20068;-52
2021/11/22 00:31:04;;;;;;;21.48;18.75;;;8.80;99.90;;;;;;4159269;28;20772;-53
2021/11/22 00:33:08;;;;;;;21.30;19.30;;;8.90;99.90;;;;;;4162012;28;20046;-53
2021/11/22 00:35:13;;;;;;;26.90;21.30;;;8.80;99.90;;;;;;4159201;28;20516;-52
2021/11/22 00:37:20;;;;;;;23.75;21.10;;;8.80;99.90;;;;;;4158316;28;20076;-52
2021/11/22 00:39:22;;;;;;;23.35;19.73;;;8.80;99.90;;;;;;4158938;28;20692;-53
2021/11/22 00:41:24;;;;;;;22.58;20.27;;;8.80;99.90;;;;;;4160757;28;20073;-53
2021/11/22 00:43:26;;;;;;;23.80;19.50;;;8.80;99.90;;;;;;4160118;28;20354;-53
2021/11/22 00:45:30;;;;;;;22.35;20.00;;;8.80;99.90;;;;;;4161821;28;20476;-53
2021/11/22 00:47:33;;;;;;;25.48;19.95;;;8.80;99.90;;;;;;4158855;28;20112;-53
2021/11/22 00:49:37;;;;;;;24.83;21.02;;;8.80;99.90;;;;;;4160765;28;20072;-53
2021/11/22 00:51:39;;;;;;;27.42;23.50;;;8.80;99.90;;;;;;4151293;28;20046;-53
2021/11/22 00:53:41;;;;;;;35.78;27.67;;;8.80;99.90;;;;;;4161357;28;20153;-52
2021/11/22 00:55:43;;;;;;;29.23;24.70;;;8.80;99.90;;;;;;4158898;28;20047;-53
2021/11/22 00:57:45;;;;;;;30.27;25.23;;;8.80;99.90;;;;;;4160644;28;20076;-53
2021/11/22 00:59:47;;;;;;;26.83;23.98;;;8.80;99.90;;;;;;4159873;28;20077;-52
2021/11/22 01:01:50;;;;;;;31.13;24.20;;;8.80;99.90;;;;;;4160107;28;20113;-52
2021/11/22 01:03:52;;;;;;;28.95;23.15;;;8.80;99.90;;;;;;4157506;28;20125;-53
2021/11/22 01:05:54;;;;;;;34.95;24.60;;;8.80;99.90;;;;;;4160485;28;20054;-52
2021/11/22 01:07:57;;;;;;;28.38;24.00;;;8.80;99.90;;;;;;4158672;28;20066;-52
2021/11/22 01:09:59;;;;;;;29.92;23.67;;;8.80;99.90;;;;;;4160425;28;20441;-52
2021/11/22 01:12:01;;;;;;;25.23;22.42;;;8.80;99.90;;;;;;4158487;28;20117;-51
2021/11/22 01:14:04;;;;;;;22.27;19.83;;;8.80;99.90;;;;;;4160214;28;20045;-49
2021/11/22 01:16:07;;;;;;;27.70;22.38;;;8.70;99.90;;;;;;4158687;28;20129;-53
2021/11/22 01:18:09;;;;;;;;;;;8.70;99.90;;;;;;4160430;28;20040;-52
2021/11/22 01:20:14;;;;;;;20.60;18.60;;;8.60;99.90;;;;;;4157528;28;19975;-53
2021/11/22 01:22:16;;;;;;;21.83;19.63;;;8.60;99.90;;;;;;4160880;28;20064;-53
2021/11/22 01:24:18;;;;;;;23.00;18.40;;;8.70;99.90;;;;;;4156347;28;20073;-50
2021/11/22 01:26:20;;;;;;;24.17;20.27;;;8.80;99.90;;;;;;4161537;28;20041;-52
2021/11/22 01:28:22;;;;;;;26.27;21.02;;;8.80;99.90;;;;;;4159943;28;20513;-52
2021/11/22 01:30:25;;;;;;;27.98;22.80;;;8.70;99.90;;;;;;4161541;28;20033;-53
2021/11/22 01:32:27;;;;;;;25.63;21.65;;;8.70;99.90;;;;;;4159957;28;20108;-52
2021/11/22 01:34:29;;;;;;;24.25;19.77;;;8.60;99.90;;;;;;4164073;28;20128;-52
2021/11/22 01:36:31;;;;;;;29.10;23.30;;;8.60;99.90;;;;;;4162106;28;20124;-53
2021/11/22 01:38:33;;;;;;;24.25;21.75;;;8.50;99.90;;;;;;4164751;28;20565;-53
2021/11/22 01:40:35;;;;;;;24.17;21.70;;;8.50;99.90;;;;;;4161345;28;20077;-52
2021/11/22 01:42:40;;;;;;;22.73;20.58;;;8.50;99.90;;;;;;4164768;28;20764;-52
2021/11/22 01:44:42;;;;;;;24.60;21.92;;;8.40;99.90;;;;;;4160867;28;20109;-52
2021/11/22 01:46:49;;;;;;;23.05;20.70;;;8.40;99.90;;;;;;4165078;28;20492;-53
2021/11/22 01:48:53;;;;;;;24.65;21.23;;;8.40;99.90;;;;;;4160201;28;20045;-51
2021/11/22 01:50:55;;;;;;;27.27;21.63;;;8.40;99.90;;;;;;4164547;28;20037;-51
2021/11/22 01:52:57;;;;;;;23.25;20.52;;;8.40;99.90;;;;;;4161808;28;20072;-52
2021/11/22 01:54:59;;;;;;;22.75;20.40;;;8.50;99.90;;;;;;4163716;28;20065;-53
2021/11/22 01:57:01;;;;;;;22.02;19.33;;;8.50;99.90;;;;;;4161309;28;20509;-53
2021/11/22 01:59:04;;;;;;;22.25;20.05;;;8.50;99.90;;;;;;4163066;28;20065;-51
2021/11/22 02:01:06;;;;;;;22.73;20.35;;;8.50;99.90;;;;;;4159934;28;20145;-52
2021/11/22 02:03:09;;;;;;;;;;;8.50;99.90;;;;;;4165230;28;20076;-51
2021/11/22 02:05:11;;;;;;;20.25;18.02;;;8.50;99.90;;;;;;4161600;28;19956;-52
2021/11/22 02:07:13;;;;;;;21.90;19.58;;;8.50;99.90;;;;;;4163492;28;20145;-51
2021/11/22 02:09:15;;;;;;;21.27;19.35;;;8.50;99.90;;;;;;4159879;28;20049;-52
2021/11/22 02:11:18;;;;;;;23.88;19.95;;;8.50;99.90;;;;;;4164358;28;20076;-53
2021/11/22 02:13:20;;;;;;;;;;;8.50;99.90;;;;;;4162041;28;20073;-53
2021/11/22 02:15:22;;;;;;;20.30;16.98;;;8.50;99.90;;;;;;4164020;28;19971;-52
2021/11/22 02:17:24;;;;;;;23.08;18.98;;;8.50;99.90;;;;;;4160499;28;20075;-52
2021/11/22 02:19:26;;;;;;;21.95;19.73;;;8.60;99.90;;;;;;4163220;28;20068;-53
2021/11/22 02:21:29;;;;;;;21.45;19.42;;;8.60;99.90;;;;;;4161660;28;20440;-52
2021/11/22 02:23:31;;;;;;;21.88;19.00;;;8.60;99.90;;;;;;4161778;28;20117;-52
2021/11/22 02:25:36;;;;;;;26.83;20.08;;;8.60;99.90;;;;;;4162243;28;20120;-53
2021/11/22 02:27:39;;;;;;;21.80;19.58;;;8.60;99.90;;;;;;4162142;28;20734;-53
2021/11/22 02:29:41;;;;;;;24.25;19.58;;;8.60;99.90;;;;;;4162161;28;20128;-52
2021/11/22 02:31:43;;;;;;;22.58;20.23;;;8.60;99.90;;;;;;4161623;28;20481;-52
2021/11/22 02:33:45;;;;;;;22.52;20.30;;;8.50;99.90;;;;;;4162985;28;20080;-53
2021/11/22 02:35:50;;;;;;;21.13;19.20;;;8.50;99.90;;;;;;4162545;28;20134;-52
2021/11/22 02:37:59;;;;;;;22.17;19.90;;;8.50;99.90;;;;;;4160024;28;20080;-52
2021/11/22 02:40:03;;;;;;;21.98;19.88;;;8.60;99.90;;;;;;4161547;28;20393;-53
2021/11/22 02:42:12;;;;;;;20.15;18.13;;;8.60;99.90;;;;;;4163081;28;20374;-53
2021/11/22 02:44:14;;;;;;;20.15;18.13;;;8.60;99.90;;;;;;4160121;28;20110;-53
2021/11/22 02:46:16;;;;;;;20.98;18.92;;;8.60;99.90;;;;;;4162484;28;20067;-52
2021/11/22 02:48:19;;;;;;;19.85;17.88;;;8.60;99.90;;;;;;4161994;28;20039;-52
2021/11/22 02:50:21;;;;;;;22.23;19.90;;;8.60;99.90;;;;;;4160155;28;20359;-53
2021/11/22 02:52:23;;;;;;;;;;;8.60;99.90;;;;;;4161730;28;20757;-53
2021/11/22 02:54:25;;;;;;;20.30;17.42;;;8.60;99.90;;;;;;4163410;28;20023;-53
2021/11/22 02:56:33;;;;;;;26.83;19.83;;;8.60;99.90;;;;;;4161527;28;20077;-52
2021/11/22 02:58:38;;;;;;;19.92;18.02;;;8.60;99.90;;;;;;4162446;28;20458;-53
2021/11/22 03:00:40;;;;;;;20.02;18.02;;;8.60;99.90;;;;;;4160206;28;20076;-53
2021/11/22 03:02:43;;;;;;;21.27;18.38;;;8.60;99.90;;;;;;4163301;28;20188;-53
2021/11/22 03:04:46;;;;;;;20.80;18.67;;;8.60;99.90;;;;;;4161223;28;20049;-53
2021/11/22 03:06:48;;;;;;;21.35;19.10;;;8.70;99.90;;;;;;4156838;28;20040;-53
2021/11/22 03:08:50;;;;;;;23.45;20.70;;;8.70;99.90;;;;;;4156698;28;20473;-52
2021/11/22 03:10:52;;;;;;;20.02;18.08;;;8.70;99.90;;;;;;4154872;28;20080;-53
2021/11/22 03:12:56;;;;;;;21.20;19.13;;;8.70;99.90;;;;;;4161349;28;20061;-52
2021/11/22 03:14:58;;;;;;;20.05;17.85;;;8.70;99.90;;;;;;4162229;28;20064;-52
2021/11/22 03:17:01;;;;;;;20.95;18.77;;;8.70;99.90;;;;;;4160484;28;20041;-52
2021/11/22 03:19:04;;;;;;;19.95;18.02;;;8.70;99.90;;;;;;4161379;28;20045;-52
2021/11/22 03:21:07;;;;;;;19.33;16.80;;;8.70;99.90;;;;;;4158510;28;20116;-52
2021/11/22 03:23:09;;;;;;;;;;;8.70;99.90;;;;;;4162908;28;20038;-52
2021/11/22 03:25:12;;;;;;;25.80;20.20;;;8.70;99.90;;;;;;4159994;28;19921;-53
2021/11/22 03:27:14;;;;;;;23.95;20.45;;;8.70;99.90;;;;;;4162984;28;20057;-52
2021/11/22 03:29:16;;;;;;;26.55;20.67;;;8.70;99.90;;;;;;4160881;28;20064;-53
2021/11/22 03:31:18;;;;;;;26.20;19.52;;;8.60;99.90;;;;;;4163127;28;20080;-52
2021/11/22 03:33:21;;;;;;;21.65;19.42;;;8.60;99.90;;;;;;4159325;28;20502;-51
2021/11/22 03:35:23;;;;;;;21.92;19.73;;;8.60;99.90;;;;;;4159475;28;20049;-52
2021/11/22 03:37:25;;;;;;;21.30;19.40;;;8.60;99.90;;;;;;4157077;28;20121;-52
2021/11/22 03:39:27;;;;;;;21.35;19.25;;;8.60;99.90;;;;;;4162781;28;20446;-53
2021/11/22 03:41:31;;;;;;;20.80;18.80;;;8.60;99.90;;;;;;4160678;28;20049;-53
2021/11/22 03:43:37;;;;;;;22.15;20.05;;;8.60;99.90;;;;;;4158382;28;20034;-52
2021/11/22 03:45:47;;;;;;;22.85;20.75;;;8.60;99.90;;;;;;4160786;28;20064;-53
2021/11/22 03:47:49;;;;;;;24.60;21.80;;;8.50;99.90;;;;;;4163137;28;20041;-52
2021/11/22 03:49:52;;;;;;;27.50;20.95;;;8.60;99.90;;;;;;4158842;28;20060;-53
2021/11/22 03:51:53;;;;;;;;;;;8.60;99.90;;;;;;4163571;28;20117;-52
2021/11/22 03:53:55;;;;;;;23.52;19.73;;;8.50;99.90;;;;;;4159789;28;19931;-53
2021/11/22 03:55:58;;;;;;;23.25;20.75;;;8.60;99.90;;;;;;4161682;28;20036;-53
2021/11/22 03:58:00;;;;;;;20.77;18.55;;;8.60;99.90;;;;;;4158409;28;20123;-53
2021/11/22 04:00:04;;;;;;;20.70;18.52;;;8.60;99.90;;;;;;4161780;28;20050;-53
2021/11/22 04:02:06;;;;;;;22.85;20.52;;;8.60;99.90;;;;;;4159479;28;20701;-51
2021/11/22 04:04:09;;;;;;;24.33;21.77;;;8.50;99.90;;;;;;4161185;28;20226;-53
2021/11/22 04:06:11;;;;;;;36.40;23.42;;;8.50;99.90;;;;;;4157307;28;20033;-52
2021/11/22 04:08:13;;;;;;;25.02;20.73;;;8.50;99.90;;;;;;4161329;28;20733;-52
2021/11/22 04:10:15;;;;;;;23.33;20.40;;;8.50;99.90;;;;;;4159558;28;20144;-52
2021/11/22 04:12:17;;;;;;;23.77;21.27;;;8.50;99.90;;;;;;4155059;28;20049;-51
2021/11/22 04:14:19;;;;;;;25.67;20.10;;;8.50;99.90;;;;;;4160750;28;20061;-52
2021/11/22 04:16:21;;;;;;;23.02;20.35;;;8.50;99.90;;;;;;4161997;28;20047;-52
2021/11/22 04:18:24;;;;;;;22.05;18.55;;;8.50;99.90;;;;;;4158325;28;20049;-54
2021/11/22 04:20:26;;;;;;;24.45;19.38;;;8.50;99.90;;;;;;4162015;28;20077;-53
2021/11/22 04:22:28;;;;;;;24.80;17.10;;;8.60;99.90;;;;;;4159481;28;20458;-52
2021/11/22 04:24:31;;;;;;;19.52;17.50;;;8.60;99.90;;;;;;4160537;28;20033;-53
2021/11/22 04:26:33;;;;;;;;;;;8.60;99.90;;;;;;4160866;28;20120;-53
2021/11/22 04:28:36;;;;;;;17.80;16.15;;;8.60;99.90;;;;;;4160662;28;20515;-52
2021/11/22 04:30:39;;;;;;;19.35;17.55;;;8.60;99.90;;;;;;4160250;28;20073;-53
2021/11/22 04:32:42;;;;;;;18.52;16.80;;;8.60;99.90;;;;;;4160761;28;20046;-52
2021/11/22 04:34:44;;;;;;;18.80;16.90;;;8.60;99.90;;;;;;4159960;28;20049;-53
2021/11/22 04:36:46;;;;;;;18.75;16.83;;;8.60;99.90;;;;;;4161670;28;20042;-53
2021/11/22 04:38:48;;;;;;;19.92;18.00;;;8.50;99.90;;;;;;4158584;28;20051;-53
2021/11/22 04:40:50;;;;;;;20.92;18.02;;;8.50;99.90;;;;;;4157625;28;20041;-52
2021/11/22 04:42:53;;;;;;;21.95;17.48;;;8.50;99.90;;;;;;4159620;28;20041;-52
2021/11/22 04:44:55;;;;;;;;;;;8.50;99.90;;;;;;4159020;28;20502;-52
2021/11/22 04:46:57;;;;;;;18.10;16.45;;;8.50;99.90;;;;;;4159928;28;19921;-53
2021/11/22 04:48:59;;;;;;;16.85;15.32;;;8.60;99.90;;;;;;4161220;28;20068;-52
2021/11/22 04:51:01;;;;;;;18.55;15.68;;;8.50;99.90;;;;;;4160170;28;20080;-53
2021/11/22 04:53:04;;;;;;;16.13;14.65;;;8.60;99.90;;;;;;4160652;28;20404;-52
2021/11/22 04:55:07;;;;;;;18.33;16.63;;;8.60;99.90;;;;;;4159354;28;20041;-53
2021/11/22 04:57:09;;;;;;;18.08;16.50;;;8.60;99.90;;;;;;4161548;28;20140;-53
2021/11/22 04:59:12;;;;;;;18.23;16.45;;;8.60;99.90;;;;;;4159820;28;20516;-54
2021/11/22 05:01:14;;;;;;;19.42;17.80;;;8.60;99.90;;;;;;4159204;28;20496;-53
2021/11/22 05:03:17;;;;;;;19.17;16.70;;;8.60;99.90;;;;;;4160397;28;20519;-53
2021/11/22 05:05:19;;;;;;;19.35;17.00;;;8.60;99.90;;;;;;4160361;28;20397;-53
2021/11/22 05:07:21;;;;;;;;;;;8.50;99.90;;;;;;4161041;28;20116;-52
2021/11/22 05:09:24;;;;;;;20.88;18.77;;;8.50;99.90;;;;;;4162537;28;20475;-53
2021/11/22 05:11:27;;;;;;;18.98;17.23;;;8.40;99.90;;;;;;4164891;28;20043;-52
2021/11/22 05:13:29;;;;;;;20.48;18.42;;;8.40;99.90;;;;;;4162308;28;20120;-52
2021/11/22 05:15:35;;;;;;;19.40;17.48;;;8.40;99.90;;;;;;4163742;28;20133;-53
2021/11/22 05:17:40;;;;;;;19.55;17.52;;;8.40;99.90;;;;;;4153348;28;20044;-52
2021/11/22 05:19:42;;;;;;;20.17;17.58;;;8.40;99.90;;;;;;4162390;28;20038;-52
2021/11/22 05:21:45;;;;;;;18.42;16.88;;;8.40;99.90;;;;;;4161150;28;20712;-51
2021/11/22 05:23:48;;;;;;;18.90;15.75;;;8.40;99.90;;;;;;4164792;28;20044;-52
2021/11/22 05:25:50;;;;;;;18.90;17.00;;;8.30;99.90;;;;;;4161739;28;20068;-52
2021/11/22 05:27:52;;;;;;;19.83;17.77;;;8.30;99.90;;;;;;4163815;28;20527;-52
2021/11/22 05:29:55;;;;;;;20.45;18.30;;;8.40;99.90;;;;;;4161396;28;20119;-52
2021/11/22 05:31:57;;;;;;;19.00;17.27;;;8.30;99.90;;;;;;4163142;28;20128;-53
2021/11/22 05:33:59;;;;;;;18.75;16.67;;;8.30;99.90;;;;;;4161762;28;20212;-50
2021/11/22 05:36:01;;;;;;;19.05;17.45;;;8.30;99.90;;;;;;4158863;28;20081;-53
2021/11/22 05:38:04;;;;;;;21.85;19.73;;;8.30;99.90;;;;;;4155304;28;20073;-53
2021/11/22 05:40:07;;;;;;;19.77;17.70;;;8.30;99.90;;;;;;4156975;28;20189;-53
2021/11/22 05:42:09;;;;;;;22.80;20.58;;;8.30;99.90;;;;;;4156031;28;20121;-52
2021/11/22 05:44:11;;;;;;;28.33;19.83;;;8.40;99.90;;;;;;4161837;28;20041;-52
2021/11/22 05:46:13;;;;;;;21.45;19.23;;;8.40;99.90;;;;;;4161853;28;20033;-52
2021/11/22 05:48:16;;;;;;;21.25;19.17;;;8.40;99.90;;;;;;4159209;28;20037;-52
2021/11/22 05:50:19;;;;;;;29.88;21.38;;;8.40;99.90;;;;;;4160420;28;20077;-52
2021/11/22 05:52:23;;;;;;;22.58;20.17;;;8.40;99.90;;;;;;4160579;28;20030;-52
2021/11/22 05:54:25;;;;;;;22.73;20.25;;;8.40;99.90;;;;;;4161980;28;20026;-53
2021/11/22 05:56:27;;;;;;;21.13;19.13;;;8.40;99.90;;;;;;4155738;28;20116;-53
2021/11/22 05:58:31;;;;;;;22.15;19.67;;;8.50;99.90;;;;;;4153431;28;20033;-52
2021/11/22 06:00:34;;;;;;;22.65;20.60;;;8.50;99.90;;;;;;4160700;28;20120;-52
2021/11/22 06:02:36;;;;;;;22.77;20.20;;;8.50;99.90;;;;;;4161265;28;20042;-53
2021/11/22 06:04:38;;;;;;;;;;;8.50;99.90;;;;;;4154506;28;20072;-53
2021/11/22 06:06:40;;;;;;;26.00;19.92;;;8.50;99.90;;;;;;4156182;28;20027;-53
2021/11/22 06:08:42;;;;;;;26.10;20.63;;;8.50;99.90;;;;;;4158203;28;20132;-53
2021/11/22 06:10:45;;;;;;;22.10;19.95;;;8.50;99.90;;;;;;4158610;28;20034;-53
2021/11/22 06:12:49;;;;;;;23.30;21.00;;;8.50;99.90;;;;;;4162500;28;20604;-53
2021/11/22 06:14:52;;;;;;;22.70;20.42;;;8.50;99.90;;;;;;4161527;28;20033;-52
2021/11/22 06:16:54;;;;;;;22.00;19.75;;;8.50;99.90;;;;;;4163092;28;20076;-53
2021/11/22 06:18:57;;;;;;;22.67;20.48;;;8.50;99.90;;;;;;4154737;28;20584;-53
2021/11/22 06:20:59;;;;;;;21.77;19.75;;;8.50;99.90;;;;;;4162281;28;20069;-53
2021/11/22 06:23:01;;;;;;;26.15;20.48;;;8.50;99.90;;;;;;4160952;28;20033;-52
2021/11/22 06:25:05;;;;;;;25.85;20.65;;;8.50;99.90;;;;;;4162385;28;20455;-51
2021/11/22 06:27:07;;;;;;;19.80;18.00;;;8.50;99.90;;;;;;4159510;28;20486;-48
2021/11/22 06:29:12;;;;;;;;;;;8.50;99.90;;;;;;4163224;28;20070;-48
2021/11/22 06:31:14;;;;;;;24.45;19.10;;;8.50;99.90;;;;;;4161457;28;19948;-47
2021/11/22 06:33:16;;;;;;;26.85;19.08;;;8.50;99.90;;;;;;4163208;28;20549;-51
2021/11/22 06:35:19;;;;;;;26.05;20.77;;;8.40;99.90;;;;;;4162626;28;20041;-47
2021/11/22 06:37:22;;;;;;;42.25;32.00;;;8.40;99.90;;;;;;4163010;28;20048;-47
2021/11/22 06:39:24;;;;;;;26.95;24.23;;;8.50;99.90;;;;;;4156149;28;20132;-51
2021/11/22 06:41:26;;;;;;;22.33;20.13;;;8.50;99.90;;;;;;4160316;28;20089;-47
2021/11/22 06:43:28;;;;;;;21.00;19.02;;;8.50;99.90;;;;;;4163431;28;20128;-49
2021/11/22 06:45:30;;;;;;;21.38;19.20;;;8.40;99.90;;;;;;4161322;28;20584;-51
2021/11/22 06:47:33;;;;;;;23.42;21.08;;;8.30;99.90;;;;;;4161632;28;20037;-50
2021/11/22 06:49:35;;;;;;;;;;;8.30;99.90;;;;;;4160806;28;20112;-50
2021/11/22 06:51:37;;;;;;;22.98;20.38;;;8.20;99.90;;;;;;4160501;28;19956;-47
2021/11/22 06:53:39;;;;;;;21.92;19.92;;;8.20;99.90;;;;;;4159415;28;20686;-48
2021/11/22 06:55:41;;;;;;;22.65;19.25;;;8.20;99.90;;;;;;4161967;28;20073;-48
2021/11/22 06:57:44;;;;;;;20.90;18.77;;;8.10;99.90;;;;;;4159801;28;20148;-50
2021/11/22 06:59:47;;;;;;;22.83;20.35;;;8.20;99.90;;;;;;4162761;28;20700;-46
2021/11/22 07:01:49;;;;;;;32.85;27.15;;;8.20;99.90;;;;;;4158893;28;20125;-46
2021/11/22 07:03:51;;;;;;;35.20;28.02;;;8.20;99.90;;;;;;4162702;28;20041;-46
2021/11/22 07:05:53;;;;;;;25.55;22.92;;;8.10;99.90;;;;;;4158802;28;20091;-46
2021/11/22 07:07:55;;;;;;;32.67;23.48;;;8.10;99.90;;;;;;4162365;28;20402;-46
2021/11/22 07:09:57;;;;;;;31.13;24.73;;;8.20;99.90;;;;;;4159492;28;20029;-46
2021/11/22 07:12:00;;;;;;;27.35;24.42;;;8.10;99.90;;;;;;4163485;28;20084;-46
2021/11/22 07:14:04;;;;;;;28.80;24.50;;;8.10;99.90;;;;;;4159932;28;20639;-46
2021/11/22 07:16:06;;;;;;;24.60;22.20;;;8.20;99.90;;;;;;4163058;28;20120;-46
2021/11/22 07:18:08;;;;;;;26.73;24.13;;;8.20;99.90;;;;;;4158548;28;20505;-49
2021/11/22 07:20:10;;;;;;;29.50;24.98;;;8.30;99.90;;;;;;4163337;28;20079;-46
2021/11/22 07:22:13;;;;;;;28.83;22.17;;;8.30;99.90;;;;;;4159860;28;20509;-47
2021/11/22 07:24:15;;;;;;;29.30;25.85;;;8.30;99.90;;;;;;4162853;28;20076;-48
2021/11/22 07:26:18;;;;;;;31.45;24.83;;;8.40;99.90;;;;;;4159667;28;20459;-48
2021/11/22 07:28:20;;;;;;;;;;;8.40;99.90;;;;;;4161778;28;20068;-46
2021/11/22 07:30:22;;;;;;;33.83;25.92;;;8.40;99.90;;;;;;4159200;28;20316;-47
2021/11/22 07:32:28;;;;;;;53.63;34.20;;;8.50;99.90;;;;;;4160719;28;20136;-46
2021/11/22 07:34:30;;;;;;;43.97;29.65;;;8.40;99.90;;;;;;4155392;28;20042;-46
2021/11/22 07:36:33;;;;;;;37.67;27.90;;;8.50;99.90;;;;;;4157327;28;20120;-46
2021/11/22 07:38:35;;;;;;;29.15;25.90;;;8.60;99.90;;;;;;4155978;28;20049;-47
2021/11/22 07:40:38;;;;;;;32.50;26.50;;;8.60;99.90;;;;;;4155036;28;20077;-46
2021/11/22 07:42:40;;;;;;;;;;;8.70;99.90;;;;;;4154339;28;20124;-46
2021/11/22 07:44:42;;;;;;;31.42;24.40;;;8.70;99.90;;;;;;4161685;28;19925;-46
2021/11/22 07:46:44;;;;;;;32.63;25.40;;;8.80;99.90;;;;;;4159343;28;20556;-48
2021/11/22 07:48:46;;;;;;;27.77;22.83;;;8.80;99.90;;;;;;4162498;28;20064;-47
2021/11/22 07:50:48;;;;;;;22.23;20.13;;;8.80;99.90;;;;;;4160624;28;20033;-46
2021/11/22 07:53:08;;;;;;;25.55;21.48;;;8.90;99.90;;;;;;4162479;28;20045;-47
2021/11/22 07:55:11;;;;;;;23.83;20.70;;;8.90;99.90;;;;;;4159305;28;20042;-47
2021/11/22 07:57:12;;;;;;;23.08;20.17;;;9.00;99.90;;;;;;4161539;28;20135;-47
2021/11/22 07:59:15;;;;;;;23.40;20.20;;;9.00;99.90;;;;;;4159299;28;20043;-46
2021/11/22 08:01:16;;;;;;;22.40;20.10;;;9.00;99.90;;;;;;4162275;28;20069;-46
2021/11/22 08:03:19;;;;;;;24.17;21.65;;;9.10;99.90;;;;;;4160505;28;20044;-46
2021/11/22 08:05:23;;;;;;;27.52;22.88;;;9.10;99.90;;;;;;4160928;28;20160;-48
2021/11/22 08:07:25;;;;;;;24.52;21.75;;;9.20;99.90;;;;;;4160780;28;20033;-46
2021/11/22 08:09:31;;;;;;;22.30;20.05;;;9.20;99.90;;;;;;4161478;28;20050;-47
2021/11/22 08:11:43;;;;;;;24.65;22.00;;;9.20;99.90;;;;;;4158234;28;20037;-47
2021/11/22 08:13:49;;;;;;;23.27;20.75;;;9.30;99.90;;;;;;4161260;28;20076;-46
2021/11/22 08:15:51;;;;;;;21.08;18.17;;;9.40;99.90;;;;;;4160389;28;20057;-47
2021/11/22 08:17:54;;;;;;;21.15;18.90;;;9.40;99.90;;;;;;4161206;28;20069;-46
2021/11/22 08:19:57;;;;;;;21.15;19.02;;;9.50;99.90;;;;;;4160380;28;20060;-48
2021/11/22 08:21:59;;;;;;;20.25;18.25;;;9.50;99.90;;;;;;4161474;28;20041;-46
2021/11/22 08:24:01;;;;;;;22.30;19.92;;;9.60;99.90;;;;;;4159464;28;20038;-48
2021/11/22 08:26:04;;;;;;;28.85;18.40;;;9.60;99.90;;;;;;4161945;28;20516;-47
2021/11/22 08:28:08;;;;;;;17.45;15.48;;;9.70;99.90;;;;;;4160296;28;20569;-46
2021/11/22 08:30:17;;;;;;;20.42;16.58;;;9.70;99.90;;;;;;4160997;28;20673;-48
2021/11/22 08:32:20;;;;;;;16.33;14.73;;;9.80;99.90;;;;;;4159290;28;20092;-50
2021/11/22 08:34:22;;;;;;;15.15;13.73;;;9.90;99.90;;;;;;4157737;28;20092;-48
2021/11/22 08:36:25;;;;;;;15.65;14.23;;;9.90;99.90;;;;;;4152379;28;20128;-47
2021/11/22 08:38:27;;;;;;;33.97;28.40;;;9.90;99.90;;;;;;4161799;28;20124;-48
2021/11/22 08:40:32;;;;;;;21.05;17.00;;;9.90;99.90;;;;;;4160117;28;20128;-47
2021/11/22 08:42:34;;;;;;;20.27;18.35;;;10.00;99.90;;;;;;4161006;28;20048;-47
2021/11/22 08:44:37;;;;;;;23.75;20.73;;;10.00;99.90;;;;;;4156931;28;20153;-47
2021/11/22 08:46:40;;;;;;;18.58;16.75;;;10.10;99.90;;;;;;4161671;28;20124;-48
2021/11/22 08:48:42;;;;;;;19.15;17.17;;;10.10;99.90;;;;;;4158873;28;20034;-47
2021/11/22 08:50:44;;;;;;;22.25;19.95;;;10.20;99.90;;;;;;4160733;28;20037;-48
2021/11/22 08:52:46;;;;;;;18.95;16.58;;;10.20;99.90;;;;;;4159956;28;20033;-46
2021/11/22 08:54:52;;;;;;;17.00;15.38;;;10.20;99.90;;;;;;4161941;28;20061;-50
2021/11/22 08:56:54;;;;;;;17.52;14.25;;;10.20;99.90;;;;;;4160248;28;20063;-51
2021/11/22 08:58:56;;;;;;;27.80;15.50;;;10.20;99.90;;;;;;4160432;28;20500;-46
2021/11/22 09:00:58;;;;;;;18.60;16.80;;;10.30;99.90;;;;;;4161330;28;20064;-48
2021/11/22 09:03:00;;;;;;;20.90;17.63;;;10.30;99.90;;;;;;4159772;28;20041;-48
2021/11/22 09:05:04;;;;;;;21.17;18.95;;;10.40;99.90;;;;;;4159762;28;20827;-49
2021/11/22 09:07:07;;;;;;;21.85;19.35;;;10.50;99.90;;;;;;4160941;28;20433;-48
2021/11/22 09:09:10;;;;;;;22.92;18.48;;;10.50;99.90;;;;;;4158135;28;20069;-49
2021/11/22 09:11:13;;;;;;;19.23;16.63;;;10.40;99.90;;;;;;4159704;28;20033;-48
2021/11/22 09:13:17;;;;;;;19.10;17.20;;;10.40;99.90;;;;;;4159568;28;20064;-47
2021/11/22 09:15:20;;;;;;;17.85;15.70;;;10.40;99.90;;;;;;4159735;28;20717;-48
2021/11/22 09:17:22;;;;;;;;;;;10.40;99.90;;;;;;4162599;28;20124;-49
2021/11/22 09:19:24;;;;;;;16.60;15.15;;;10.40;99.90;;;;;;4158401;28;20015;-50
2021/11/22 09:21:27;;;;;;;16.42;14.73;;;10.50;99.90;;;;;;4160461;28;20128;-50
2021/11/22 09:23:31;;;;;;;16.42;14.77;;;10.50;99.90;;;;;;4159572;28;20045;-48
2021/11/22 09:25:35;;;;;;;18.60;15.63;;;10.50;99.90;;;;;;4160435;28;20033;-49
2021/11/22 09:27:37;;;;;;;17.30;15.48;;;10.50;99.90;;;;;;4159703;28;20051;-48
2021/11/22 09:29:39;;;;;;;;;;;10.50;99.90;;;;;;4161377;28;20330;-49
2021/11/22 09:31:41;;;;;;;14.57;13.07;;;10.50;99.90;;;;;;4159509;28;19927;-48
2021/11/22 09:33:45;;;;;;;23.80;15.77;;;10.60;99.90;;;;;;4151445;28;20140;-48
2021/11/22 09:35:47;;;;;;;16.08;14.20;;;10.60;99.90;;;;;;4158891;28;20121;-47
2021/11/22 09:37:49;;;;;;;23.08;20.48;;;10.70;99.90;;;;;;4161228;28;20597;-48
2021/11/22 09:39:52;;;;;;;23.83;21.23;;;10.80;99.90;;;;;;4157481;28;20041;-50
2021/11/22 09:41:54;;;;;;;24.63;20.83;;;10.80;99.90;;;;;;4160242;28;20413;-49
2021/11/22 09:43:57;;;;;;;23.38;21.35;;;10.80;99.90;;;;;;4158196;28;20381;-48
2021/11/22 09:45:59;;;;;;;22.60;20.38;;;10.80;99.90;;;;;;4160101;28;20041;-47
2021/11/22 09:48:03;;;;;;;20.73;18.48;;;10.80;99.90;;;;;;4157803;28;20083;-47
2021/11/22 09:50:07;;;;;;;27.20;20.80;;;10.70;99.90;;;;;;4160294;28;20120;-48
2021/11/22 09:52:09;;;;;;;20.52;18.23;;;10.70;99.90;;;;;;4158214;28;20732;-50
2021/11/22 09:54:11;;;;;;;21.17;19.10;;;10.80;99.90;;;;;;4162970;28;20152;-48
2021/11/22 09:56:14;;;;;;;18.73;16.92;;;10.80;99.90;;;;;;4160990;28;20133;-48
2021/11/22 09:58:16;;;;;;;17.50;16.05;;;10.80;99.90;;;;;;4164326;28;20053;-47
2021/11/22 10:00:18;;;;;;;19.75;16.77;;;10.80;99.90;;;;;;4157195;28;20472;-46
2021/11/22 10:02:52;;;;;;;18.80;16.75;;;10.80;99.90;;;;;;4162352;28;20069;-48
2021/11/22 10:04:54;;;;;;;19.13;17.40;;;10.80;99.90;;;;;;4159856;28;20057;-47
2021/11/22 10:06:59;;;;;;;17.67;16.08;;;10.90;99.90;;;;;;4160232;28;20124;-47
2021/11/22 10:09:02;;;;;;;18.05;16.38;;;10.90;99.90;;;;;;4159075;28;20148;-48
2021/11/22 10:11:08;;;;;;;21.17;18.02;;;10.90;99.90;;;;;;4164474;28;20100;-48
2021/11/22 10:13:35;;;;;;;21.50;17.65;;;10.90;99.90;;;;;;4161455;28;20041;-46
2021/11/22 10:15:37;;;;;;;16.27;14.45;;;11.00;99.90;;;;;;4152968;28;20038;-48
2021/11/22 10:17:40;;;;;;;15.70;14.07;;;11.00;99.90;;;;;;4162378;28;20061;-48
2021/11/22 10:19:42;;;;;;;12.05;11.13;;;11.10;99.90;;;;;;4162908;28;20095;-49
2021/11/22 10:21:44;;;;;;;12.40;11.57;;;11.10;99.90;;;;;;4162052;28;20140;-48
2021/11/22 10:23:48;;;;;;;10.27;9.45;;;11.20;99.90;;;;;;4159422;28;20052;-48
2021/11/22 10:25:53;;;;;;;11.27;10.65;;;11.20;99.90;;;;;;4159123;28;20125;-48
2021/11/22 10:28:00;;;;;;;9.77;9.05;;;11.30;99.90;;;;;;4160937;28;20128;-48
2021/11/22 10:30:42;;;;;;;9.48;8.85;;;11.30;99.90;;;;;;4157470;28;20038;-48
2021/11/22 10:32:44;;;;;;;9.27;8.80;;;11.30;99.90;;;;;;4158127;28;20224;-48
2021/11/22 10:34:46;;;;;;;9.45;8.65;;;11.40;99.90;;;;;;4156280;28;20528;-48